Time;durP1;ratioP1;P1;durP2;ratioP2;P2;SDS_P1;SDS_P2;PMS_P1;PMS_P2;Temp;Humidity;BMP_temperature;BMP_pressure;BME280_temperature;BME280_humidity;BME280_pressure;Samples;Min_cycle;Max_cycle;Signal;HPM_P1;HPM_P2
2022/07/14 00:00:53;;;;;;;23.50;4.25;;;;;;;15.17;97.63;102067.75;5030318;28;20045;-70
2022/07/14 00:03:19;;;;;;;14.32;4.03;;;;;;;14.89;99.25;102073.97;5030127;28;20060;-69
2022/07/14 00:05:44;;;;;;;12.52;4.38;;;;;;;15.08;96.90;102071.00;5029140;28;20026;-69
2022/07/14 00:08:10;;;;;;;18.15;5.75;;;;;;;14.96;97.99;102061.91;5030086;28;20038;-69
2022/07/14 00:10:38;;;;;;;11.50;3.90;;;;;;;14.78;97.60;102054.97;5029872;28;20044;-69
2022/07/14 00:13:03;;;;;;;13.82;3.38;;;;;;;14.77;96.88;102054.13;5029891;28;20022;-69
2022/07/14 00:15:29;;;;;;;15.45;3.80;;;;;;;14.75;96.98;102047.97;5029767;28;20032;-69
2022/07/14 00:17:59;;;;;;;18.52;4.13;;;;;;;14.73;98.84;102049.91;5030045;28;20037;-69
2022/07/14 00:20:25;;;;;;;13.82;4.75;;;;;;;14.74;99.24;102038.19;5029661;28;20075;-69
2022/07/14 00:22:50;;;;;;;18.35;4.50;;;;;;;14.77;100.00;102029.94;5028856;28;20085;-69
2022/07/14 00:25:19;;;;;;;20.90;5.32;;;;;;;14.76;100.00;102022.00;5029536;28;20022;-69
2022/07/14 00:27:46;;;;;;;19.20;4.20;;;;;;;14.77;100.00;102029.09;5029467;28;20410;-70
2022/07/14 00:30:11;;;;;;;13.02;4.55;;;;;;;14.76;100.00;102036.28;5012171;28;20049;-69
2022/07/14 00:32:38;;;;;;;14.43;4.05;;;;;;;14.76;100.00;102041.66;5028482;28;20100;-69
2022/07/14 00:35:05;;;;;;;19.02;4.05;;;;;;;14.80;100.00;102039.63;5027961;28;20034;-70
2022/07/14 00:37:30;;;;;;;19.75;4.63;;;;;;;14.70;100.00;102036.66;5028982;28;20387;-69
2022/07/14 00:39:56;;;;;;;16.13;4.40;;;;;;;14.71;100.00;102034.84;5027978;28;20026;-69
2022/07/14 00:42:54;;;;;;;14.30;5.45;;;;;;;14.71;100.00;102037.53;5011650;28;20034;-69
2022/07/14 00:45:21;;;;;;;14.30;4.38;;;;;;;14.65;100.00;102036.06;5013392;28;20034;-69
2022/07/14 00:47:48;;;;;;;15.45;4.05;;;;;;;14.60;99.88;102031.94;5027802;28;20026;-70
2022/07/14 00:50:18;;;;;;;11.45;4.15;;;;;;;14.71;100.00;102033.03;5028497;28;20073;-69
2022/07/14 00:52:46;;;;;;;11.20;3.95;;;;;;;14.62;99.74;102043.47;5028515;28;20295;-69
2022/07/14 00:55:14;;;;;;;11.75;4.15;;;;;;;14.43;100.00;102044.53;5027858;28;20038;-69
2022/07/14 00:57:40;;;;;;;14.93;4.47;;;;;;;14.57;100.00;102051.78;5027500;28;20056;-69
2022/07/14 01:00:10;;;;;;;12.25;3.45;;;;;;;14.67;100.00;102047.59;5027230;28;20105;-69
2022/07/14 01:02:37;;;;;;;16.10;4.22;;;;;;;14.79;100.00;102062.06;5028267;28;20030;-69
2022/07/14 01:05:05;;;;;;;20.92;4.80;;;;;;;14.83;100.00;102060.06;5027607;28;20057;-69
2022/07/14 01:07:31;;;;;;;16.88;4.63;;;;;;;14.81;100.00;102062.88;5028286;28;20046;-69
2022/07/14 01:09:56;;;;;;;17.67;5.07;;;;;;;14.95;100.00;102068.22;5027052;28;20122;-69
2022/07/14 01:12:23;;;;;;;16.00;4.07;;;;;;;14.97;100.00;102068.16;5027157;28;20115;-68
2022/07/14 01:14:51;;;;;;;20.88;4.57;;;;;;;14.97;100.00;102069.00;5010909;28;20026;-69
2022/07/14 01:17:20;;;;;;;23.50;5.45;;;;;;;15.02;100.00;102080.31;5027072;28;20030;-68
2022/07/14 01:19:50;;;;;;;20.00;4.60;;;;;;;15.09;100.00;102088.00;5010798;28;20064;-68
2022/07/14 01:22:19;;;;;;;12.80;4.22;;;;;;;15.03;100.00;102083.88;5027385;28;20049;-69
2022/07/14 01:24:46;;;;;;;29.38;5.82;;;;;;;14.81;100.00;102078.97;5011068;28;20337;-69
2022/07/14 01:27:11;;;;;;;9.82;3.90;;;;;;;14.77;100.00;102072.06;5027185;28;20052;-69
2022/07/14 01:29:37;;;;;;;21.80;4.90;;;;;;;14.53;100.00;102065.50;5028248;28;20046;-69
2022/07/14 01:32:04;;;;;;;21.35;6.15;;;;;;;14.43;100.00;102068.69;5027178;28;20040;-69
2022/07/14 01:34:30;;;;;;;15.52;4.82;;;;;;;14.18;100.00;102063.91;5028548;28;20033;-69
2022/07/14 01:36:57;;;;;;;19.65;5.05;;;;;;;14.03;100.00;102051.41;5027343;28;20026;-69
2022/07/14 01:39:23;;;;;;;14.20;5.18;;;;;;;14.10;100.00;102050.06;5026273;28;20319;-69
2022/07/14 01:41:49;;;;;;;14.65;5.20;;;;;;;14.14;100.00;102051.63;5026931;28;20053;-69
2022/07/14 01:44:22;;;;;;;12.68;4.65;;;;;;;14.31;100.00;102055.13;5028055;28;20044;-69
2022/07/14 01:46:48;;;;;;;20.20;5.53;;;;;;;14.40;100.00;102052.75;5026889;28;20034;-69
2022/07/14 01:49:14;;;;;;;19.00;5.05;;;;;;;14.41;100.00;102057.19;5010479;28;20125;-69
2022/07/14 01:51:40;;;;;;;18.88;5.97;;;;;;;14.45;100.00;102064.09;5016981;28;20038;-69
2022/07/14 01:54:06;;;;;;;17.05;4.60;;;;;;;14.52;100.00;102055.72;5012029;28;20053;-69
2022/07/14 01:56:40;;;;;;;17.70;5.10;;;;;;;14.45;100.00;102061.41;5028458;28;20094;-70
2022/07/14 01:59:05;;;;;;;18.45;4.07;;;;;;;14.56;100.00;102057.22;5028020;28;20093;-69
2022/07/14 02:01:40;;;;;;;20.98;5.28;;;;;;;14.47;100.00;102050.59;5010093;28;20033;-69
2022/07/14 02:04:14;;;;;;;16.67;4.47;;;;;;;14.25;100.00;102059.03;5027996;28;20049;-68
2022/07/14 02:06:57;;;;;;;20.65;5.30;;;;;;;14.28;100.00;102066.91;5027439;28;20048;-69
2022/07/14 02:12:38;;;;;;;17.77;4.22;;;;;;;14.32;100.00;102067.63;5028448;28;20215;-69
2022/07/14 02:15:07;;;;;;;7.75;3.83;;;;;;;14.26;100.00;102066.16;5027860;28;20061;-68
2022/07/14 02:17:34;;;;;;;8.98;3.38;;;;;;;13.97;99.61;102067.88;5012244;28;20097;-69
2022/07/14 02:20:00;;;;;;;11.65;3.65;;;;;;;13.82;100.00;102074.13;5029406;28;20029;-69
2022/07/14 02:22:25;;;;;;;11.65;3.97;;;;;;;13.77;100.00;102073.50;5029338;28;20022;-69
2022/07/14 02:24:54;;;;;;;17.30;4.32;;;;;;;13.82;100.00;102072.28;5012320;28;20026;-69
2022/07/14 02:27:20;;;;;;;15.68;4.95;;;;;;;13.64;100.00;102070.66;5029121;28;20057;-69
2022/07/14 02:29:46;;;;;;;18.70;4.50;;;;;;;13.67;100.00;102073.16;5029669;28;20032;-69
2022/07/14 02:32:12;;;;;;;8.65;4.20;;;;;;;13.68;100.00;102070.38;5012669;28;20029;-69
2022/07/14 02:34:38;;;;;;;11.07;4.13;;;;;;;13.59;100.00;102078.09;5029313;28;20038;-68
2022/07/14 02:37:04;;;;;;;8.05;3.58;;;;;;;13.47;100.00;102074.28;5013517;28;20052;-69
2022/07/14 02:39:30;;;;;;;13.43;3.92;;;;;;;13.65;100.00;102072.38;5029629;28;20037;-69
2022/07/14 02:41:58;;;;;;;14.07;4.13;;;;;;;13.60;100.00;102074.44;5013443;28;20037;-71
2022/07/14 02:44:24;;;;;;;12.43;4.65;;;;;;;13.63;100.00;102068.91;5029754;28;20056;-69
2022/07/14 02:46:49;;;;;;;15.70;4.20;;;;;;;13.45;100.00;102057.41;5030029;28;20033;-69
2022/07/14 02:49:18;;;;;;;18.98;3.95;;;;;;;13.43;100.00;102062.88;5005026;28;20023;-70
2022/07/14 02:51:46;;;;;;;15.02;3.58;;;;;;;13.31;100.00;102060.88;5024093;28;20057;-69
2022/07/14 02:54:12;;;;;;;6.22;3.40;;;;;;;13.44;100.00;102058.38;4994844;28;20030;-69
2022/07/14 02:56:38;;;;;;;11.25;3.95;;;;;;;13.39;100.00;102060.44;5010116;28;20031;-69
2022/07/14 02:59:07;;;;;;;8.68;3.83;;;;;;;13.17;100.00;102063.41;5010146;28;20026;-69
2022/07/14 03:01:34;;;;;;;10.57;3.70;;;;;;;13.05;100.00;102059.59;4994383;28;20026;-69
2022/07/14 03:04:00;;;;;;;13.38;3.40;;;;;;;13.09;100.00;102068.31;4993913;28;20039;-68
2022/07/14 03:06:26;;;;;;;14.93;4.45;;;;;;;13.14;100.00;102060.88;5010260;28;20034;-68
2022/07/14 03:08:55;;;;;;;14.20;4.45;;;;;;;13.06;100.00;102061.31;5010345;28;20046;-70
2022/07/14 03:11:21;;;;;;;6.25;2.90;;;;;;;12.84;100.00;102050.03;5010659;28;20049;-69
2022/07/14 03:13:46;;;;;;;5.43;2.47;;;;;;;12.87;100.00;102041.84;5011985;28;20042;-70
2022/07/14 03:16:14;;;;;;;9.50;3.78;;;;;;;12.94;99.76;102037.88;5013912;28;20038;-69
2022/07/14 03:18:41;;;;;;;9.10;4.07;;;;;;;13.02;100.00;102042.81;4998067;28;20046;-70
2022/07/14 03:21:09;;;;;;;12.60;3.72;;;;;;;12.89;100.00;102047.97;5013400;28;20030;-70
2022/07/14 03:23:37;;;;;;;11.82;3.60;;;;;;;12.66;100.00;102042.03;4997539;28;20043;-70
2022/07/14 03:26:05;;;;;;;6.00;2.67;;;;;;;12.58;97.19;102043.38;5026410;28;20097;-70
2022/07/14 03:28:31;;;;;;;7.53;2.80;;;;;;;12.41;97.14;102030.91;5032915;28;20109;-69
2022/07/14 03:30:59;;;;;;;196.90;9.88;;;;;;;12.16;100.00;102050.88;5033006;28;20030;-69
2022/07/14 03:33:27;;;;;;;5.85;2.00;;;;;;;12.29;100.00;102042.22;5032644;28;20061;-69
2022/07/14 03:35:52;;;;;;;7.13;2.22;;;;;;;12.33;99.81;102041.97;5032618;28;20053;-70
2022/07/14 03:38:18;;;;;;;19.27;3.22;;;;;;;12.42;100.00;102041.50;5032372;28;20041;-69
2022/07/14 03:40:48;;;;;;;7.18;3.17;;;;;;;12.48;100.00;102045.66;5032488;28;20057;-69
2022/07/14 03:43:13;;;;;;;6.70;3.13;;;;;;;12.65;100.00;102040.31;5032417;28;20131;-70
2022/07/14 03:45:44;;;;;;;8.15;2.63;;;;;;;12.70;100.00;102040.03;5016012;28;20049;-70
2022/07/14 03:48:12;;;;;;;;;;;;;;;12.63;99.86;102044.88;5032927;28;20033;-69
2022/07/14 03:50:42;;;;;;;12.80;4.13;;;;;;;12.34;100.00;102042.84;5017108;28;19909;-69
2022/07/14 03:53:08;;;;;;;7.90;3.03;;;;;;;12.16;99.50;102050.88;5033266;28;20076;-69
2022/07/14 03:55:34;;;;;;;5.30;2.00;;;;;;;12.17;99.23;102041.03;5031883;28;20200;-69
2022/07/14 03:58:00;;;;;;;2.15;1.88;;;;;;;12.55;98.12;102035.50;5032082;28;20038;-69
2022/07/14 04:00:28;;;;;;;9.45;3.65;;;;;;;12.58;99.56;102038.88;5031880;28;20034;-69
2022/07/14 04:02:54;;;;;;;7.50;3.30;;;;;;;12.57;99.39;102036.31;5031107;28;20103;-69
2022/07/14 04:05:26;;;;;;;7.60;2.80;;;;;;;12.59;97.96;102021.03;5030314;28;20052;-68
2022/07/14 04:07:57;;;;;;;4.72;2.30;;;;;;;12.55;97.05;102031.03;5030302;28;20030;-70
2022/07/14 04:10:28;;;;;;;2.72;2.30;;;;;;;12.53;96.29;102026.72;5014064;28;20056;-68
2022/07/14 04:13:00;;;;;;;5.30;2.33;;;;;;;12.66;96.03;102025.97;5029685;28;20054;-70
2022/07/14 04:15:28;;;;;;;5.95;3.15;;;;;;;12.66;97.90;102023.31;5013551;28;20030;-69
2022/07/14 04:17:58;;;;;;;4.40;2.38;;;;;;;12.55;96.69;102024.78;5029680;28;20037;-70
2022/07/14 04:20:24;;;;;;;5.65;3.00;;;;;;;12.47;95.33;102027.03;5012783;28;20065;-69
2022/07/14 04:22:51;;;;;;;15.32;3.38;;;;;;;12.67;94.43;102034.88;5029261;28;20037;-70
2022/07/14 04:25:20;;;;;;;9.43;3.15;;;;;;;12.76;95.17;102038.88;5028659;28;20057;-69
2022/07/14 04:27:46;;;;;;;4.60;1.83;;;;;;;12.82;97.55;102027.84;5030409;28;20030;-69
2022/07/14 04:30:13;;;;;;;9.20;3.10;;;;;;;13.02;99.04;102032.13;5029462;28;20040;-69
2022/07/14 04:32:40;;;;;;;4.00;2.38;;;;;;;13.02;97.34;102027.63;5029879;28;20097;-70
2022/07/14 04:35:07;;;;;;;8.45;2.70;;;;;;;13.29;96.71;102027.94;5029010;28;20032;-68
2022/07/14 04:37:34;;;;;;;10.27;4.55;;;;;;;13.44;98.80;102037.78;5028845;28;20034;-69
2022/07/14 04:40:06;;;;;;;9.43;4.35;;;;;;;13.35;98.64;102032.06;5028544;28;20026;-70
2022/07/14 04:42:34;;;;;;;10.27;3.05;;;;;;;13.39;98.22;102044.38;5028333;28;20042;-70
2022/07/14 04:45:03;;;;;;;7.90;4.28;;;;;;;13.54;98.70;102045.31;5028133;28;20121;-70
2022/07/14 04:47:29;;;;;;;12.27;4.18;;;;;;;13.71;98.62;102027.34;5027736;28;20065;-69
2022/07/14 04:52:47;;;;;;;9.50;5.07;;;;;;;13.70;100.00;102041.69;5028231;28;20026;-69
2022/07/14 04:55:32;;;;;;;11.27;4.50;;;;;;;13.80;100.00;102046.50;5028293;28;20092;-70
2022/07/14 04:58:07;;;;;;;14.45;4.75;;;;;;;14.06;100.00;102045.00;5013491;28;20018;-69
2022/07/14 05:00:33;;;;;;;10.88;4.20;;;;;;;14.44;98.41;102038.22;5028023;28;20038;-71
2022/07/14 05:02:58;;;;;;;17.30;4.15;;;;;;;15.70;92.47;102038.41;5011823;28;20034;-70
2022/07/14 05:05:27;;;;;;;15.27;4.43;;;;;;;16.14;88.95;102039.97;5028460;28;20022;-69
2022/07/14 05:07:54;;;;;;;17.73;4.57;;;;;;;16.33;88.31;102040.44;5013080;28;20030;-68
2022/07/14 05:10:25;;;;;;;11.32;4.15;;;;;;;16.55;88.85;102029.03;4988912;28;20045;-67
2022/07/14 05:12:56;;;;;;;12.77;4.25;;;;;;;16.67;88.91;102038.09;4985044;28;20041;-67
2022/07/14 05:15:25;;;;;;;23.88;5.22;;;;;;;18.30;81.57;102022.53;5000017;28;20129;-68
2022/07/14 05:17:56;;;;;;;15.02;4.00;;;;;;;17.65;82.98;102028.34;4984039;28;20030;-68
2022/07/14 05:20:25;;;;;;;12.07;4.00;;;;;;;16.99;86.02;102034.03;5001930;28;20069;-68
2022/07/14 05:22:54;;;;;;;16.75;4.47;;;;;;;17.18;85.09;102030.88;4983695;28;20038;-67
2022/07/14 05:25:20;;;;;;;14.70;4.45;;;;;;;17.00;86.25;102034.88;4973556;28;20042;-67
2022/07/14 05:27:46;;;;;;;18.15;4.40;;;;;;;16.91;87.11;102040.91;4981972;28;20043;-67
2022/07/14 05:30:24;;;;;;;13.45;3.90;;;;;;;18.60;80.85;102028.25;4967092;28;20050;-67
2022/07/14 05:32:50;;;;;;;14.48;4.35;;;;;;;18.83;78.21;102031.88;4982088;28;20050;-66
2022/07/14 05:35:18;;;;;;;15.00;4.38;;;;;;;18.48;79.58;102042.72;4980604;28;20045;-66
2022/07/14 05:37:49;;;;;;;14.02;4.10;;;;;;;17.94;83.40;102054.06;4979091;28;20038;-67
2022/07/14 05:40:18;;;;;;;14.55;3.70;;;;;;;18.41;80.38;102044.16;4980148;28;20049;-67
2022/07/14 05:42:45;;;;;;;15.82;4.13;;;;;;;18.52;80.07;102051.44;4979902;28;20042;-68
2022/07/14 05:45:11;;;;;;;14.43;3.65;;;;;;;18.51;80.11;102053.28;4979486;28;20096;-68
2022/07/14 05:47:42;;;;;;;11.07;4.00;;;;;;;19.35;76.26;102060.16;4963612;28;20491;-66
2022/07/14 05:50:09;;;;;;;16.60;3.88;;;;;;;19.81;72.83;102060.94;4980146;28;20034;-67
2022/07/14 05:52:35;;;;;;;16.00;3.47;;;;;;;20.40;71.16;102053.19;4981781;28;20038;-66
2022/07/14 05:55:01;;;;;;;10.45;3.83;;;;;;;20.05;73.83;102061.63;5000164;28;20042;-68
2022/07/14 05:57:28;;;;;;;11.85;3.58;;;;;;;19.85;73.48;102062.44;5000347;28;20037;-67
2022/07/14 05:59:54;;;;;;;14.52;4.15;;;;;;;19.10;74.71;102069.38;5002134;28;20041;-67
2022/07/14 06:02:19;;;;;;;9.82;3.42;;;;;;;19.62;74.96;102061.59;4999866;28;20164;-68
2022/07/14 06:04:46;;;;;;;14.40;3.08;;;;;;;20.04;73.27;102064.47;4983557;28;20068;-67
2022/07/14 06:07:12;;;;;;;10.43;3.47;;;;;;;19.36;73.99;102061.00;5000125;28;20037;-67
2022/07/14 06:09:42;;;;;;;15.18;3.28;;;;;;;19.36;74.22;102059.16;4983973;28;20483;-68
2022/07/14 06:12:12;;;;;;;13.93;3.28;;;;;;;19.12;73.04;102055.72;4999931;28;20082;-68
2022/07/14 06:14:43;;;;;;;15.00;3.40;;;;;;;19.41;71.98;102048.81;5000315;28;20041;-68
2022/07/14 06:17:10;;;;;;;14.85;4.07;;;;;;;20.36;72.93;102040.91;4983878;28;20042;-68
2022/07/14 06:19:37;;;;;;;10.90;3.15;;;;;;;20.15;69.28;102038.19;4983607;28;20561;-68
2022/07/14 06:22:06;;;;;;;9.30;3.53;;;;;;;20.12;70.51;102043.00;5000387;28;20049;-68
2022/07/14 06:24:40;;;;;;;11.25;2.75;;;;;;;20.25;70.37;102040.97;4999286;28;20042;-68
2022/07/14 06:27:05;;;;;;;15.20;3.03;;;;;;;21.01;67.51;102047.03;4999766;28;20060;-68
2022/07/14 06:29:32;;;;;;;13.25;3.13;;;;;;;20.28;68.10;102046.13;4999326;28;20050;-68
2022/07/14 06:31:57;;;;;;;18.83;3.40;;;;;;;20.24;69.76;102041.97;5001036;28;20045;-67
2022/07/14 06:34:24;;;;;;;8.60;2.75;;;;;;;20.30;68.14;102046.00;4999435;28;20490;-66
2022/07/14 06:37:09;;;;;;;12.45;3.10;;;;;;;20.28;66.83;102046.13;5000012;28;20053;-66
2022/07/14 06:39:35;;;;;;;12.27;3.00;;;;;;;20.45;65.97;102044.69;5001382;28;20041;-65
2022/07/14 06:42:03;;;;;;;12.13;3.00;;;;;;;20.53;63.69;102053.03;5002547;28;20041;-67
2022/07/14 06:44:34;;;;;;;10.75;2.80;;;;;;;21.07;66.50;102045.63;4999527;28;20054;-68
2022/07/14 06:47:05;;;;;;;13.65;2.58;;;;;;;20.78;65.22;102043.63;4999163;28;20042;-67
2022/07/14 06:49:30;;;;;;;11.48;2.42;;;;;;;20.84;65.91;102036.81;5003526;28;20049;-68
2022/07/14 06:51:58;;;;;;;12.13;2.30;;;;;;;21.21;62.22;102035.25;5013924;28;20180;-69
2022/07/14 06:54:25;;;;;;;15.57;2.63;;;;;;;20.80;65.61;102035.38;5015161;28;20058;-69
2022/07/14 06:56:54;;;;;;;13.82;2.67;;;;;;;21.32;64.40;102031.63;5029071;28;20026;-70
2022/07/14 06:59:19;;;;;;;9.10;2.63;;;;;;;20.81;62.97;102039.78;5029027;28;20029;-69
2022/07/14 07:01:45;;;;;;;10.48;2.65;;;;;;;20.07;67.74;102039.81;5029114;28;20033;-69
2022/07/14 07:04:12;;;;;;;12.73;2.85;;;;;;;19.84;65.97;102037.19;5028977;28;20037;-69
2022/07/14 07:06:45;;;;;;;14.50;3.42;;;;;;;20.55;65.95;102020.38;5029310;28;20350;-69
2022/07/14 07:09:13;;;;;;;12.30;2.85;;;;;;;20.69;63.61;102022.75;5030158;28;20037;-70
2022/07/14 07:11:39;;;;;;;15.00;3.15;;;;;;;20.88;64.05;102003.88;5029501;28;20060;-69
2022/07/14 07:14:06;;;;;;;17.27;3.17;;;;;;;21.13;64.98;102016.09;5012879;28;20049;-69
2022/07/14 07:16:32;;;;;;;10.95;3.08;;;;;;;20.79;66.76;102012.81;5030466;28;20041;-69
2022/07/14 07:18:58;;;;;;;10.32;2.22;;;;;;;20.25;65.72;102008.47;5013512;28;20056;-69
2022/07/14 07:21:23;;;;;;;14.88;2.70;;;;;;;20.49;65.25;102012.81;5013038;28;20038;-69
2022/07/14 07:23:50;;;;;;;14.80;2.97;;;;;;;20.68;63.81;102018.31;5029511;28;20062;-68
2022/07/14 07:26:17;;;;;;;15.85;2.60;;;;;;;20.27;64.93;101998.34;5031426;28;20077;-69
2022/07/14 07:28:43;;;;;;;11.13;2.45;;;;;;;20.74;64.12;102001.53;5029285;28;20056;-69
2022/07/14 07:31:09;;;;;;;11.23;2.75;;;;;;;20.42;63.51;102009.72;5029228;28;20033;-68
2022/07/14 07:33:35;;;;;;;12.23;2.33;;;;;;;20.85;63.15;102003.28;5012747;28;20038;-69
2022/07/14 07:36:01;;;;;;;6.47;2.25;;;;;;;20.67;64.61;102005.75;5030083;28;20033;-69
2022/07/14 07:38:27;;;;;;;12.80;2.97;;;;;;;21.14;63.87;101995.28;5029884;28;20030;-68
2022/07/14 07:40:53;;;;;;;9.93;1.67;;;;;;;21.84;64.01;101999.72;5030308;28;20030;-69
2022/07/14 07:43:22;;;;;;;9.25;3.03;;;;;;;20.85;62.97;102003.28;5029999;28;20129;-69
2022/07/14 07:45:49;;;;;;;11.93;2.45;;;;;;;21.72;63.06;102001.69;5028715;28;20052;-68
2022/07/14 07:48:15;;;;;;;13.70;2.90;;;;;;;21.43;61.83;101993.50;5028604;28;20101;-68
2022/07/14 07:50:42;;;;;;;12.88;2.45;;;;;;;21.50;61.90;102001.97;5027404;28;20050;-68
2022/07/14 07:53:08;;;;;;;10.18;1.90;;;;;;;21.78;61.03;102007.56;4992402;28;20022;-67
2022/07/14 07:55:34;;;;;;;10.93;2.20;;;;;;;21.69;60.69;102001.13;5026095;28;20045;-68
2022/07/14 07:58:00;;;;;;;11.05;2.35;;;;;;;21.33;60.33;101995.34;5029616;28;20034;-68
2022/07/14 08:00:26;;;;;;;9.40;2.28;;;;;;;21.37;62.07;102002.22;5027730;28;20026;-69
2022/07/14 08:02:53;;;;;;;12.50;2.63;;;;;;;21.64;60.51;102001.56;5029468;28;20030;-69
2022/07/14 08:05:24;;;;;;;8.40;2.38;;;;;;;22.01;58.78;101995.41;5028231;28;20041;-68
2022/07/14 08:07:50;;;;;;;11.07;1.80;;;;;;;22.55;62.13;101987.66;5028123;28;20042;-68
2022/07/14 08:10:19;;;;;;;11.25;2.45;;;;;;;22.42;59.13;101979.81;5023348;28;20045;-67
2022/07/14 08:12:46;;;;;;;8.57;2.13;;;;;;;21.95;60.31;101986.00;5002945;28;20073;-66
2022/07/14 08:15:12;;;;;;;8.15;2.63;;;;;;;;;;4985643;28;20045;-67
2022/07/14 08:17:40;;;;;;;11.52;2.10;;;;;;;23.77;58.00;101983.75;5001482;28;20029;-67
2022/07/14 08:20:08;;;;;;;10.95;2.50;;;;;;;22.83;56.59;101983.97;5001708;28;20045;-67
2022/07/14 08:22:37;;;;;;;10.75;2.40;;;;;;;22.01;58.38;101970.97;5001491;28;20072;-67
2022/07/14 08:25:05;;;;;;;8.52;2.20;;;;;;;23.06;57.14;101972.72;5001276;28;20053;-67
2022/07/14 08:27:31;;;;;;;13.65;2.83;;;;;;;23.06;55.26;101970.88;5001530;28;20048;-66
2022/07/14 08:29:56;;;;;;;12.27;2.25;;;;;;;23.51;54.22;101965.44;5002424;28;20041;-67
2022/07/14 08:32:49;;;;;;;5.80;1.80;;;;;;;23.16;51.65;101965.38;5002337;28;20105;-68
2022/07/14 08:35:18;;;;;;;4.05;1.50;;;;;;;22.41;53.91;101964.50;5002817;28;20046;-69
2022/07/14 08:37:44;;;;;;;10.30;2.05;;;;;;;21.17;57.04;101965.13;5001300;28;20076;-67
2022/07/14 08:40:13;;;;;;;11.27;1.80;;;;;;;22.60;56.51;101969.03;5004036;28;20049;-67
2022/07/14 08:42:44;;;;;;;5.15;1.58;;;;;;;22.72;51.60;101962.41;5003162;28;20045;-68
2022/07/14 08:45:12;;;;;;;8.02;1.27;;;;;;;22.83;50.40;101953.19;5002820;28;20046;-67
2022/07/14 08:47:38;;;;;;;10.23;2.22;;;;;;;22.61;52.19;101962.59;5002094;28;20207;-68
2022/07/14 08:50:06;;;;;;;6.10;1.27;;;;;;;23.17;53.70;101953.47;5002419;28;20034;-68
2022/07/14 08:52:32;;;;;;;7.55;2.25;;;;;;;23.28;54.09;101950.53;5002174;28;20046;-68
2022/07/14 08:54:58;;;;;;;3.78;1.60;;;;;;;22.48;52.46;101952.03;5002111;28;20091;-67
2022/07/14 08:57:24;;;;;;;13.48;1.80;;;;;;;23.30;55.11;101962.16;5001968;28;20854;-66
2022/07/14 08:59:50;;;;;;;7.57;1.70;;;;;;;23.14;52.28;101953.78;5001685;28;20044;-68
2022/07/14 09:02:15;;;;;;;8.95;2.08;;;;;;;23.05;53.89;101952.84;5000682;28;20759;-67
2022/07/14 09:04:46;;;;;;;4.13;1.50;;;;;;;23.37;55.28;101954.22;5002125;28;20522;-68
2022/07/14 09:07:28;;;;;;;10.18;2.15;;;;;;;23.80;50.62;101938.97;5000579;28;20057;-67
2022/07/14 09:10:05;;;;;;;5.05;1.30;;;;;;;23.30;48.78;101939.50;5001874;28;20046;-68
2022/07/14 09:12:31;;;;;;;6.80;1.98;;;;;;;23.16;52.60;101944.47;5000094;28;20175;-67
2022/07/14 09:17:56;;;;;;;11.20;1.92;;;;;;;23.16;50.95;101935.44;5000506;28;20045;-67
2022/07/14 09:20:28;;;;;;;6.75;1.63;;;;;;;23.65;53.86;101931.41;5002175;28;20037;-67
2022/07/14 09:22:58;;;;;;;7.05;1.95;;;;;;;23.49;49.61;101931.19;5002075;28;20045;-68
2022/07/14 09:25:26;;;;;;;4.10;1.13;;;;;;;24.06;48.79;101918.09;5000179;28;20037;-66
2022/07/14 09:27:53;;;;;;;8.32;1.73;;;;;;;23.93;48.56;101912.19;5001479;28;20922;-66
2022/07/14 09:30:19;;;;;;;5.40;1.35;;;;;;;22.92;49.67;101928.69;5001450;28;20042;-67
2022/07/14 09:33:04;;;;;;;4.05;1.50;;;;;;;23.08;49.33;101922.59;5000475;28;20072;-67
2022/07/14 09:35:38;;;;;;;3.10;1.45;;;;;;;23.15;49.62;101920.97;5001004;28;20048;-67
2022/07/14 09:38:20;;;;;;;6.70;1.58;;;;;;;23.13;50.15;101922.97;5001405;28;20054;-67
2022/07/14 09:40:50;;;;;;;8.02;1.30;;;;;;;22.58;50.85;101922.09;5001250;28;20817;-66
2022/07/14 09:43:17;;;;;;;6.43;1.20;;;;;;;22.76;56.64;101923.03;5000152;28;20486;-67
2022/07/14 09:45:49;;;;;;;4.30;1.55;;;;;;;23.23;49.82;101928.34;5001391;28;20053;-68
2022/07/14 09:48:17;;;;;;;4.10;1.00;;;;;;;22.94;49.47;101921.25;5001086;28;20036;-67
2022/07/14 09:50:47;;;;;;;10.02;1.90;;;;;;;23.56;50.95;101909.66;5000760;28;20034;-67
2022/07/14 09:53:12;;;;;;;5.75;2.05;;;;;;;24.09;47.83;101912.31;5001170;28;20049;-67
2022/07/14 09:55:42;;;;;;;8.68;1.40;;;;;;;23.81;46.89;101919.78;4982878;28;20036;-66
2022/07/14 09:58:08;;;;;;;2.13;0.98;;;;;;;23.73;51.03;101926.00;4999316;28;20088;-68
2022/07/14 10:00:34;;;;;;;6.65;1.75;;;;;;;22.84;48.77;101931.28;5001129;28;20065;-66
2022/07/14 10:03:03;;;;;;;8.13;1.88;;;;;;;23.27;49.21;101935.22;5001110;28;20058;-67
2022/07/14 10:05:31;;;;;;;7.35;1.50;;;;;;;23.34;51.29;101921.84;5000538;28;20030;-67
2022/07/14 10:07:58;;;;;;;6.60;1.40;;;;;;;22.89;50.78;101939.00;5000647;28;20034;-66
2022/07/14 10:10:24;;;;;;;5.45;1.35;;;;;;;23.03;48.54;101937.66;5000977;28;20041;-67
2022/07/14 10:12:50;;;;;;;6.55;1.52;;;;;;;22.86;49.89;101942.00;5000885;28;20088;-67
2022/07/14 10:15:15;;;;;;;8.63;1.35;;;;;;;22.92;56.15;101936.00;5000887;28;20038;-67
2022/07/14 10:17:42;;;;;;;2.08;0.95;;;;;;;22.93;51.17;101944.00;5000878;28;20125;-66
2022/07/14 10:20:11;;;;;;;2.42;1.13;;;;;;;23.11;50.07;101943.22;5000680;28;20048;-66
2022/07/14 10:22:38;;;;;;;7.05;1.20;;;;;;;23.74;47.37;101924.13;4998369;28;20125;-68
2022/07/14 10:25:05;;;;;;;3.88;0.90;;;;;;;24.63;43.61;101928.53;5000963;28;20796;-66
2022/07/14 10:27:32;;;;;;;7.22;0.90;;;;;;;23.78;49.82;101930.97;5000477;28;20042;-66
2022/07/14 10:29:58;;;;;;;1.80;1.40;;;;;;;23.54;49.59;101934.28;5000552;28;20045;-67
2022/07/14 10:32:37;;;;;;;3.75;1.25;;;;;;;24.23;49.13;101925.38;5000914;28;20152;-68
2022/07/14 10:35:24;;;;;;;5.88;1.45;;;;;;;23.97;45.90;101924.50;5000680;28;20041;-68
2022/07/14 10:38:27;;;;;;;4.53;1.10;;;;;;;24.38;46.86;101928.41;4999312;28;20038;-67
2022/07/14 10:41:11;;;;;;;3.65;1.00;;;;;;;24.41;46.50;101922.63;5000713;28;20399;-66
2022/07/14 10:44:06;;;;;;;4.93;1.40;;;;;;;24.19;45.03;101918.50;5000542;28;20184;-66
2022/07/14 10:46:44;;;;;;;4.20;1.17;;;;;;;24.04;45.56;101917.38;4992240;28;20088;-68
2022/07/14 10:49:12;;;;;;;2.83;1.10;;;;;;;23.94;45.40;101922.94;4999059;28;20042;-69
2022/07/14 10:51:50;;;;;;;3.95;1.15;;;;;;;24.35;45.87;101908.72;5000281;28;20057;-69
2022/07/14 10:54:26;;;;;;;6.55;1.23;;;;;;;23.39;47.13;101920.34;5000208;28;20053;-68
2022/07/14 10:57:12;;;;;;;4.25;1.50;;;;;;;23.93;47.91;101914.94;4999990;28;20501;-68
2022/07/14 10:59:38;;;;;;;5.65;1.40;;;;;;;23.49;47.27;101921.16;5000476;28;20801;-68
2022/07/14 11:02:13;;;;;;;5.75;1.30;;;;;;;24.36;46.35;101922.25;5001530;28;20050;-69
2022/07/14 11:04:56;;;;;;;3.00;1.02;;;;;;;23.87;45.53;101921.00;5001487;28;20057;-69
2022/07/14 11:07:46;;;;;;;5.63;1.40;;;;;;;24.14;47.16;101912.69;5000685;28;20850;-69
2022/07/14 11:10:14;;;;;;;4.85;1.30;;;;;;;24.35;45.16;101904.16;5000419;28;20093;-68
2022/07/14 11:12:59;;;;;;;6.10;1.20;;;;;;;24.50;43.77;101905.31;4999349;28;20041;-67
2022/07/14 11:15:45;;;;;;;5.38;1.13;;;;;;;24.48;44.17;101910.03;4999177;28;20137;-69
2022/07/14 11:18:25;;;;;;;4.70;1.10;;;;;;;24.60;44.01;101910.63;4998509;28;20786;-69
2022/07/14 11:21:06;;;;;;;9.23;1.55;;;;;;;24.21;46.17;101915.66;4999250;28;20046;-68
2022/07/14 11:23:34;;;;;;;4.22;1.33;;;;;;;24.75;45.04;101909.00;5001167;28;20050;-67
2022/07/14 11:26:06;;;;;;;7.63;1.42;;;;;;;25.77;43.12;101912.50;4999595;28;20133;-68
2022/07/14 11:28:31;;;;;;;4.35;1.35;;;;;;;25.41;40.89;101907.34;5000600;28;20045;-66
2022/07/14 11:31:15;;;;;;;4.50;1.38;;;;;;;25.95;45.63;101915.06;5000351;28;20580;-67
2022/07/14 11:36:32;;;;;;;6.53;1.60;;;;;;;26.54;40.55;101905.56;5003585;28;20140;-67
2022/07/14 11:39:16;;;;;;;7.97;2.10;;;;;;;26.27;42.18;101904.09;5004009;28;20084;-67